Time;durP1;ratioP1;P1;durP2;ratioP2;P2;SDS_P1;SDS_P2;PMS_P1;PMS_P2;Temp;Humidity;BMP_temperature;BMP_pressure;BME280_temperature;BME280_humidity;BME280_pressure;Samples;Min_cycle;Max_cycle;Signal;HPM_P1;HPM_P2
2022/11/22 05:03:59;;;;;;;1.20;1.20;;;6.40;99.90;;;;;;5781378;23;20729;-65
2022/11/22 05:06:24;;;;;;;1.30;1.17;;;6.30;99.90;;;;;;4958217;29;20195;-65
2022/11/22 05:08:50;;;;;;;1.00;1.00;;;6.30;99.90;;;;;;4958449;29;20224;-65
2022/11/22 05:11:15;;;;;;;1.70;1.10;;;6.20;99.90;;;;;;4958376;29;20214;-64
2022/11/22 05:13:41;;;;;;;1.30;1.17;;;6.20;99.90;;;;;;4958018;29;20202;-65
2022/11/22 05:16:10;;;;;;;2.60;1.50;;;6.10;99.90;;;;;;4958241;29;20169;-65
2022/11/22 05:18:35;;;;;;;0.93;0.90;;;6.10;99.90;;;;;;4958439;29;20636;-64
2022/11/22 05:21:10;;;;;;;1.13;1.13;;;6.00;99.90;;;;;;4958177;29;20232;-65
2022/11/22 05:23:54;;;;;;;1.20;1.15;;;6.00;99.90;;;;;;4957918;29;20284;-66
2022/11/22 05:26:33;;;;;;;2.13;1.13;;;6.00;99.90;;;;;;4958168;29;20171;-66
2022/11/22 05:29:03;;;;;;;1.48;1.17;;;5.90;99.90;;;;;;4957983;29;20170;-66
2022/11/22 05:31:31;;;;;;;1.33;1.25;;;5.90;99.90;;;;;;4957896;29;20205;-65
2022/11/22 05:33:57;;;;;;;1.05;1.05;;;5.90;99.90;;;;;;4956903;29;20223;-64
2022/11/22 05:36:23;;;;;;;1.53;1.43;;;5.90;99.90;;;;;;4957859;29;20257;-65
2022/11/22 05:38:50;;;;;;;1.73;1.52;;;5.80;99.90;;;;;;4957754;29;20169;-66
2022/11/22 05:41:16;;;;;;;1.50;1.40;;;5.80;99.90;;;;;;4956856;28;20322;-65
2022/11/22 05:43:42;;;;;;;2.67;2.25;;;5.80;99.90;;;;;;4957293;29;20203;-65
2022/11/22 05:46:09;;;;;;;2.30;2.10;;;5.80;99.90;;;;;;4957588;29;20169;-65
2022/11/22 05:48:37;;;;;;;1.98;1.77;;;5.80;99.90;;;;;;4957678;29;20184;-66
2022/11/22 05:51:07;;;;;;;2.22;1.80;;;5.90;99.90;;;;;;4957699;29;20201;-64
2022/11/22 05:53:33;;;;;;;2.28;1.50;;;5.90;99.90;;;;;;4957103;29;20171;-65
2022/11/22 05:56:20;;;;;;;1.85;1.75;;;5.90;99.90;;;;;;4957518;29;20181;-63
2022/11/22 05:58:46;;;;;;;2.20;2.10;;;5.90;99.90;;;;;;4957536;29;20189;-64
2022/11/22 06:01:17;;;;;;;2.53;2.30;;;5.90;99.90;;;;;;4957341;29;20258;-66
2022/11/22 06:03:43;;;;;;;3.33;3.13;;;6.00;99.90;;;;;;4956961;29;20233;-64
2022/11/22 06:06:09;;;;;;;4.32;1.90;;;6.00;99.90;;;;;;4957091;29;20195;-64
2022/11/22 06:08:37;;;;;;;2.60;2.40;;;6.00;99.90;;;;;;4957224;29;20263;-65
2022/11/22 06:11:07;;;;;;;2.20;2.00;;;6.00;99.90;;;;;;4950160;28;20265;-65
2022/11/22 06:13:37;;;;;;;5.82;3.17;;;6.10;99.90;;;;;;4949134;29;20599;-68
2022/11/22 06:16:05;;;;;;;2.60;2.50;;;6.10;99.90;;;;;;4957233;29;20183;-66
2022/11/22 06:18:31;;;;;;;2.40;2.30;;;6.20;99.90;;;;;;4957525;29;20181;-68
2022/11/22 06:21:01;;;;;;;2.27;2.07;;;6.20;99.90;;;;;;4957056;29;20187;-64
2022/11/22 06:23:27;;;;;;;3.30;2.90;;;6.20;99.90;;;;;;4953132;29;20191;-65
2022/11/22 06:26:02;;;;;;;3.60;3.30;;;6.30;99.90;;;;;;4944376;29;20184;-64
2022/11/22 06:28:32;;;;;;;2.90;2.60;;;6.20;99.90;;;;;;4937849;29;20176;-67
2022/11/22 06:31:17;;;;;;;2.42;2.20;;;6.20;99.90;;;;;;4937485;29;20202;-66
2022/11/22 06:33:44;;;;;;;2.30;2.20;;;6.20;99.90;;;;;;4937241;29;20308;-67
2022/11/22 06:36:11;;;;;;;2.10;2.00;;;6.20;99.90;;;;;;4941119;29;20519;-63
2022/11/22 06:38:38;;;;;;;2.67;2.47;;;6.20;99.90;;;;;;4952123;29;20210;-68
2022/11/22 06:41:12;;;;;;;2.58;2.47;;;6.20;99.90;;;;;;4956531;29;20547;-63
2022/11/22 06:43:39;;;;;;;2.42;2.33;;;6.20;99.90;;;;;;4944896;29;20191;-67
2022/11/22 06:46:06;;;;;;;2.78;2.05;;;6.20;99.90;;;;;;4953087;29;20180;-65
2022/11/22 06:48:36;;;;;;;2.67;2.50;;;6.20;99.90;;;;;;4956488;29;20179;-66
2022/11/22 06:51:16;;;;;;;3.83;3.30;;;6.20;99.90;;;;;;4947314;29;20287;-64
2022/11/22 06:53:42;;;;;;;3.05;2.65;;;6.20;99.90;;;;;;4936493;29;20272;-65
2022/11/22 06:56:09;;;;;;;2.15;2.03;;;6.30;99.90;;;;;;4937062;29;20241;-64
2022/11/22 06:58:36;;;;;;;3.28;2.25;;;6.30;99.90;;;;;;4937126;29;20577;-66
2022/11/22 07:01:07;;;;;;;2.50;2.30;;;6.30;99.90;;;;;;4937075;29;20306;-66
2022/11/22 07:03:39;;;;;;;1.80;1.70;;;6.30;99.90;;;;;;4936647;29;20166;-66
2022/11/22 07:06:06;;;;;;;2.95;2.05;;;6.30;99.90;;;;;;4937060;29;20593;-65
2022/11/22 07:08:32;;;;;;;5.30;2.45;;;6.30;99.90;;;;;;4950595;29;20192;-66
2022/11/22 07:11:05;;;;;;;2.15;2.05;;;6.30;99.90;;;;;;4956712;29;20303;-67
2022/11/22 07:13:31;;;;;;;2.40;2.22;;;6.30;99.90;;;;;;4941172;29;20324;-66
2022/11/22 07:15:59;;;;;;;3.30;2.70;;;6.20;99.90;;;;;;4939306;29;20177;-66
2022/11/22 07:18:25;;;;;;;2.30;2.15;;;6.20;99.90;;;;;;4945834;29;20173;-66
2022/11/22 07:20:51;;;;;;;3.30;2.17;;;6.20;99.90;;;;;;4945969;29;20178;-66
2022/11/22 07:23:17;;;;;;;2.40;2.07;;;6.30;99.90;;;;;;4946583;29;20599;-65
2022/11/22 07:25:47;;;;;;;3.27;2.63;;;6.30;99.90;;;;;;4945883;29;20215;-63
2022/11/22 07:28:13;;;;;;;3.50;2.08;;;6.30;99.90;;;;;;4944900;29;20272;-66
2022/11/22 07:30:40;;;;;;;1.92;1.73;;;6.40;99.90;;;;;;4942089;29;20223;-66
2022/11/22 07:33:06;;;;;;;2.67;2.53;;;6.40;99.90;;;;;;4952451;29;20251;-64
2022/11/22 07:35:31;;;;;;;3.63;2.90;;;6.40;99.90;;;;;;4955855;29;20205;-65
2022/11/22 07:37:57;;;;;;;2.53;2.30;;;6.40;99.90;;;;;;4956092;29;20179;-65
2022/11/22 07:40:23;;;;;;;3.17;2.87;;;6.40;99.90;;;;;;4961723;29;20174;-65
2022/11/22 07:42:48;;;;;;;3.67;2.27;;;6.50;99.90;;;;;;4948779;29;20280;-65
2022/11/22 07:45:14;;;;;;;3.13;2.70;;;6.40;99.90;;;;;;4938517;29;20268;-65
2022/11/22 07:47:39;;;;;;;3.90;3.07;;;6.40;99.90;;;;;;4937848;29;20260;-65
2022/11/22 07:50:05;;;;;;;5.33;2.43;;;6.50;99.90;;;;;;4955584;29;20211;-66
2022/11/22 07:52:31;;;;;;;3.20;2.90;;;6.50;99.90;;;;;;4957083;29;20183;-66
2022/11/22 07:54:57;;;;;;;3.60;2.03;;;6.50;99.90;;;;;;4955695;29;20247;-66
2022/11/22 07:57:22;;;;;;;2.60;2.40;;;6.50;99.90;;;;;;4956139;29;20255;-66
2022/11/22 07:59:48;;;;;;;3.30;2.30;;;6.60;99.90;;;;;;4955435;29;20172;-66
2022/11/22 08:02:13;;;;;;;3.13;2.17;;;6.60;99.90;;;;;;4945061;29;20231;-65
2022/11/22 08:04:39;;;;;;;3.70;3.40;;;6.70;99.90;;;;;;4935247;29;20193;-65
2022/11/22 08:07:04;;;;;;;3.13;2.83;;;6.60;99.90;;;;;;4936332;29;20271;-65
2022/11/22 08:09:30;;;;;;;2.87;2.67;;;6.80;99.90;;;;;;4918990;29;20176;-66
2022/11/22 08:11:56;;;;;;;8.60;3.17;;;6.80;99.90;;;;;;4936049;29;20214;-66
2022/11/22 08:14:22;;;;;;;3.27;2.97;;;6.90;99.90;;;;;;4918908;29;20197;-65
2022/11/22 08:16:48;;;;;;;5.20;3.83;;;7.00;99.90;;;;;;4944460;29;20509;-65
2022/11/22 08:19:16;;;;;;;10.40;4.43;;;7.00;99.90;;;;;;4955200;29;20184;-65
2022/11/22 08:21:42;;;;;;;6.90;2.97;;;7.00;99.90;;;;;;4955304;29;20171;-66
2022/11/22 08:24:08;;;;;;;5.85;3.42;;;7.10;99.90;;;;;;4954789;29;20199;-65
2022/11/22 08:26:34;;;;;;;8.20;3.40;;;7.10;99.90;;;;;;4955140;29;20223;-64
2022/11/22 08:29:03;;;;;;;2.90;2.70;;;7.20;99.90;;;;;;4955265;29;20659;-65
2022/11/22 08:31:28;;;;;;;3.33;3.03;;;7.20;99.90;;;;;;4939599;29;20211;-64
2022/11/22 08:33:54;;;;;;;3.40;2.50;;;7.30;99.90;;;;;;4935470;29;20202;-65
2022/11/22 08:36:20;;;;;;;10.80;3.77;;;7.30;99.90;;;;;;4936115;29;20184;-67
2022/11/22 08:38:46;;;;;;;7.20;2.70;;;7.30;99.90;;;;;;4936098;29;20182;-66
2022/11/22 08:41:12;;;;;;;4.17;2.50;;;7.40;99.90;;;;;;4936211;29;20260;-64
2022/11/22 08:43:37;;;;;;;3.67;3.00;;;7.50;99.90;;;;;;4935267;29;20632;-67
2022/11/22 08:46:03;;;;;;;1.87;1.67;;;7.60;99.90;;;;;;4949470;29;20176;-66
2022/11/22 08:48:31;;;;;;;1.52;1.42;;;7.70;99.90;;;;;;4939444;29;20664;-66
2022/11/22 08:50:59;;;;;;;2.17;2.05;;;7.80;99.90;;;;;;4935810;29;20209;-66
2022/11/22 08:53:26;;;;;;;5.53;2.53;;;7.90;99.90;;;;;;4935560;29;20166;-67
2022/11/22 08:55:53;;;;;;;2.17;1.67;;;8.00;99.90;;;;;;4936028;29;20201;-66
2022/11/22 08:58:19;;;;;;;2.47;1.60;;;8.10;99.90;;;;;;4918698;29;20176;-66
2022/11/22 09:00:44;;;;;;;1.63;1.53;;;8.20;99.90;;;;;;4948638;29;20209;-65
2022/11/22 09:03:11;;;;;;;3.27;1.63;;;8.30;99.90;;;;;;4954442;29;20408;-66
2022/11/22 09:05:36;;;;;;;2.13;1.45;;;8.40;99.90;;;;;;4954499;29;20781;-65
2022/11/22 09:08:02;;;;;;;3.33;2.10;;;8.50;99.90;;;;;;4954944;29;20204;-66
2022/11/22 09:10:28;;;;;;;7.35;1.58;;;8.60;99.90;;;;;;4954747;29;20264;-66
2022/11/22 09:12:53;;;;;;;2.30;1.27;;;8.60;99.90;;;;;;4954517;29;20705;-66
2022/11/22 09:15:19;;;;;;;1.23;1.13;;;8.80;99.90;;;;;;4942481;29;20190;-67
2022/11/22 09:17:45;;;;;;;5.20;1.30;;;8.90;99.90;;;;;;4938896;29;20181;-66
2022/11/22 09:20:11;;;;;;;1.80;1.60;;;9.00;99.90;;;;;;4939331;29;20181;-67
2022/11/22 09:22:37;;;;;;;8.13;2.20;;;9.00;99.90;;;;;;4938860;29;20174;-65
2022/11/22 09:25:04;;;;;;;1.77;1.58;;;9.00;99.90;;;;;;4938919;29;20220;-66
2022/11/22 09:27:32;;;;;;;3.90;1.55;;;9.00;99.90;;;;;;4938954;29;20581;-64
2022/11/22 09:29:57;;;;;;;1.48;1.38;;;9.00;99.90;;;;;;4939722;29;20237;-65
2022/11/22 09:32:23;;;;;;;2.60;1.30;;;9.10;99.90;;;;;;4938987;29;20178;-65
2022/11/22 09:34:49;;;;;;;2.10;1.53;;;9.10;99.90;;;;;;4938456;29;20370;-65
2022/11/22 09:37:17;;;;;;;1.17;1.00;;;9.10;99.90;;;;;;4938792;29;20437;-65
2022/11/22 09:39:43;;;;;;;2.58;1.48;;;9.20;99.90;;;;;;4938889;29;20183;-66
2022/11/22 09:42:28;;;;;;;3.20;2.92;;;9.20;99.90;;;;;;4938706;29;20181;-66
2022/11/22 09:44:57;;;;;;;1.77;1.67;;;9.30;99.90;;;;;;4950916;29;20205;-66
2022/11/22 09:47:31;;;;;;;1.38;1.27;;;9.30;99.90;;;;;;4957742;29;20170;-63
2022/11/22 09:50:08;;;;;;;3.53;1.65;;;9.40;99.90;;;;;;4957914;29;20665;-65
2022/11/22 09:52:39;;;;;;;2.67;1.00;;;9.40;99.90;;;;;;4957443;29;20569;-64
2022/11/22 09:55:33;;;;;;;3.05;0.80;;;9.50;99.90;;;;;;4957912;29;20193;-63
2022/11/22 09:58:05;;;;;;;3.25;1.35;;;9.50;99.90;;;;;;4957710;29;20196;-66
2022/11/22 10:00:31;;;;;;;1.80;1.05;;;9.60;99.90;;;;;;4949956;29;20329;-65
2022/11/22 10:03:15;;;;;;;1.13;1.00;;;9.60;99.90;;;;;;4938050;29;20188;-65
2022/11/22 10:05:56;;;;;;;1.10;0.90;;;9.70;99.90;;;;;;4938240;29;20261;-66
2022/11/22 10:08:51;;;;;;;2.45;1.08;;;9.80;99.90;;;;;;4938224;29;20237;-65
2022/11/22 10:11:43;;;;;;;1.25;0.80;;;9.70;99.90;;;;;;4937995;29;20567;-65
2022/11/22 10:14:27;;;;;;;2.97;1.00;;;9.70;99.90;;;;;;4954253;29;20209;-65
2022/11/22 10:17:08;;;;;;;1.65;1.00;;;9.70;99.90;;;;;;4957406;29;20169;-66
2022/11/22 10:19:36;;;;;;;2.35;1.60;;;9.60;99.90;;;;;;4957168;29;20646;-66
2022/11/22 10:22:08;;;;;;;1.63;1.10;;;9.60;99.90;;;;;;4957129;29;20208;-65
2022/11/22 10:24:34;;;;;;;1.48;1.38;;;9.60;99.90;;;;;;4956711;29;20234;-66
2022/11/22 10:27:00;;;;;;;1.20;1.10;;;9.60;99.90;;;;;;4956566;28;20221;-65
2022/11/22 10:29:38;;;;;;;1.10;1.00;;;9.60;99.90;;;;;;4957099;29;20184;-65
2022/11/22 10:32:40;;;;;;;2.60;1.42;;;9.60;99.90;;;;;;4956732;29;20465;-64
2022/11/22 10:35:22;;;;;;;1.00;0.90;;;9.60;99.90;;;;;;4943564;29;20203;-67
2022/11/22 10:38:15;;;;;;;1.38;1.20;;;9.60;99.90;;;;;;4937704;29;20200;-66
2022/11/22 10:40:53;;;;;;;2.53;2.05;;;9.50;99.90;;;;;;4937997;29;20181;-63
2022/11/22 10:43:40;;;;;;;1.10;0.90;;;9.50;99.90;;;;;;4937241;29;20645;-64
2022/11/22 10:46:12;;;;;;;0.88;0.88;;;9.50;99.90;;;;;;4937764;29;20208;-65
2022/11/22 10:49:05;;;;;;;1.48;1.25;;;9.50;99.90;;;;;;4940695;29;20180;-64
2022/11/22 10:51:45;;;;;;;2.03;1.25;;;9.60;99.90;;;;;;4955834;29;20240;-65
2022/11/22 10:54:25;;;;;;;0.88;0.80;;;9.60;99.90;;;;;;4956140;29;20192;-64
2022/11/22 10:56:58;;;;;;;1.42;1.33;;;9.60;99.90;;;;;;4956754;29;20161;-65
2022/11/22 10:59:50;;;;;;;1.17;1.05;;;9.60;99.90;;;;;;4956594;29;20180;-64
2022/11/22 11:02:53;;;;;;;1.30;1.20;;;9.60;99.90;;;;;;4956614;29;20272;-63
2022/11/22 11:05:27;;;;;;;0.75;0.70;;;9.70;99.90;;;;;;4937179;29;20299;-64
2022/11/22 11:07:53;;;;;;;0.90;0.90;;;9.80;99.90;;;;;;4937276;29;20190;-64
2022/11/22 11:10:25;;;;;;;1.08;1.05;;;9.80;99.90;;;;;;4937044;29;20202;-63
2022/11/22 11:13:01;;;;;;;1.58;0.80;;;9.90;99.90;;;;;;4946096;29;20251;-63
2022/11/22 11:15:43;;;;;;;1.48;1.35;;;9.90;99.90;;;;;;4956169;29;20287;-63
2022/11/22 11:18:17;;;;;;;2.35;1.13;;;9.90;99.90;;;;;;4956032;29;20677;-66
2022/11/22 11:20:46;;;;;;;1.45;0.85;;;9.90;99.90;;;;;;4955859;29;20185;-62
2022/11/22 11:23:13;;;;;;;2.25;0.90;;;9.90;99.90;;;;;;4955301;29;20226;-66
2022/11/22 11:25:42;;;;;;;1.50;1.10;;;9.90;99.90;;;;;;4955272;29;20206;-63
2022/11/22 11:28:19;;;;;;;1.17;1.08;;;9.90;99.90;;;;;;4954364;29;20244;-66
2022/11/22 11:31:05;;;;;;;2.05;1.10;;;9.90;99.90;;;;;;4955857;29;20274;-63
2022/11/22 11:33:42;;;;;;;1.98;1.25;;;10.00;99.90;;;;;;4954597;29;20186;-66
2022/11/22 11:36:12;;;;;;;0.60;0.60;;;10.00;99.90;;;;;;4955827;29;20177;-66
2022/11/22 11:38:43;;;;;;;1.33;1.23;;;10.10;99.90;;;;;;4955076;28;20598;-66
2022/11/22 11:41:19;;;;;;;2.05;0.77;;;10.10;99.90;;;;;;4955158;29;20276;-65
2022/11/22 11:43:45;;;;;;;1.43;1.33;;;10.10;99.90;;;;;;4955066;29;20680;-64
2022/11/22 11:46:22;;;;;;;1.98;0.73;;;10.20;99.90;;;;;;4955536;29;20570;-67
2022/11/22 11:48:49;;;;;;;2.73;1.03;;;10.20;99.90;;;;;;4955693;29;20189;-64
2022/11/22 11:51:21;;;;;;;3.10;1.03;;;10.30;99.90;;;;;;4955868;29;20458;-66
2022/11/22 11:53:58;;;;;;;1.13;0.90;;;10.40;99.90;;;;;;4944823;29;20526;-65
2022/11/22 11:56:51;;;;;;;0.60;0.60;;;10.40;99.90;;;;;;4919794;29;20791;-66
2022/11/22 11:59:41;;;;;;;0.70;0.63;;;10.40;99.90;;;;;;4936470;29;20195;-64
2022/11/22 12:02:11;;;;;;;3.70;0.77;;;10.40;99.90;;;;;;4936189;29;20264;-67
2022/11/22 12:04:55;;;;;;;0.88;0.77;;;10.40;99.90;;;;;;4935516;29;20427;-66
2022/11/22 12:07:29;;;;;;;7.60;1.37;;;10.40;99.90;;;;;;4936891;29;20528;-63
2022/11/22 12:09:55;;;;;;;1.90;0.85;;;10.30;99.90;;;;;;4955192;29;20804;-66
2022/11/22 12:12:53;;;;;;;0.90;0.70;;;10.20;99.90;;;;;;4955252;29;20222;-64
2022/11/22 12:15:30;;;;;;;1.02;0.90;;;10.20;99.90;;;;;;4919678;29;20568;-65
2022/11/22 12:18:03;;;;;;;1.77;0.95;;;10.20;99.90;;;;;;4955341;29;20185;-66
2022/11/22 12:20:50;;;;;;;0.50;0.50;;;10.30;99.90;;;;;;4955203;29;20512;-66
2022/11/22 12:23:20;;;;;;;0.60;0.50;;;10.30;99.90;;;;;;4943123;29;20189;-66
2022/11/22 12:25:47;;;;;;;1.27;1.27;;;10.30;99.90;;;;;;4936551;29;20277;-64
2022/11/22 12:28:22;;;;;;;0.70;0.70;;;10.20;99.90;;;;;;4936030;29;20202;-67
2022/11/22 12:30:56;;;;;;;1.35;0.95;;;10.20;99.90;;;;;;4935873;29;20741;-66
2022/11/22 12:33:28;;;;;;;0.73;0.60;;;10.10;99.90;;;;;;4935627;29;20237;-67
2022/11/22 12:35:55;;;;;;;2.10;1.40;;;10.10;99.90;;;;;;4935947;29;20181;-63
2022/11/22 12:38:37;;;;;;;3.17;0.90;;;10.10;99.90;;;;;;4949496;29;20181;-66
2022/11/22 12:41:06;;;;;;;1.23;1.13;;;10.20;99.90;;;;;;4955574;29;20186;-63
2022/11/22 12:43:43;;;;;;;1.17;1.10;;;10.30;99.90;;;;;;4940560;29;20187;-65
2022/11/22 12:46:21;;;;;;;1.85;0.50;;;10.30;99.90;;;;;;4935886;29;20509;-64
2022/11/22 12:48:52;;;;;;;0.60;0.60;;;10.30;99.90;;;;;;4903352;29;20198;-64
2022/11/22 12:51:22;;;;;;;0.93;0.75;;;10.20;99.90;;;;;;4938522;29;20459;-65
2022/11/22 12:53:50;;;;;;;1.60;1.50;;;10.30;99.90;;;;;;4939149;29;20201;-62
2022/11/22 12:56:30;;;;;;;0.70;0.70;;;10.20;99.90;;;;;;4939585;29;20182;-65
2022/11/22 12:59:01;;;;;;;0.73;0.73;;;10.20;99.90;;;;;;4939629;29;20265;-64
2022/11/22 13:01:35;;;;;;;2.40;0.85;;;10.20;99.90;;;;;;4939357;29;20181;-68
2022/11/22 13:04:10;;;;;;;0.98;0.88;;;10.10;99.90;;;;;;4945489;29;20196;-64
2022/11/22 13:07:17;;;;;;;2.35;0.80;;;10.10;99.90;;;;;;4958625;29;20235;-68
2022/11/22 13:09:54;;;;;;;2.05;0.65;;;10.10;99.90;;;;;;4936376;29;20185;-65
2022/11/22 13:12:30;;;;;;;3.40;0.90;;;10.00;99.90;;;;;;4958281;29;20668;-63
2022/11/22 13:14:58;;;;;;;3.55;0.90;;;10.00;99.90;;;;;;4958220;29;20558;-66
2022/11/22 13:17:25;;;;;;;1.70;1.10;;;9.90;99.90;;;;;;4958092;29;20537;-63
2022/11/22 13:19:53;;;;;;;1.10;0.85;;;9.90;99.90;;;;;;4942200;29;20245;-67
2022/11/22 13:22:31;;;;;;;1.52;1.27;;;9.90;99.90;;;;;;4939132;29;20193;-63
2022/11/22 13:25:15;;;;;;;0.60;0.60;;;9.90;99.90;;;;;;4939163;29;20291;-66
2022/11/22 13:27:45;;;;;;;2.45;1.95;;;9.90;99.90;;;;;;4938706;29;20193;-65
2022/11/22 13:30:18;;;;;;;0.95;0.70;;;10.00;99.90;;;;;;4938373;29;20232;-66
2022/11/22 13:32:48;;;;;;;1.67;0.82;;;10.00;99.90;;;;;;4938217;29;20530;-64
2022/11/22 13:35:14;;;;;;;2.67;0.60;;;10.00;99.90;;;;;;4956819;28;20257;-66
2022/11/22 13:37:48;;;;;;;2.43;0.90;;;10.00;99.90;;;;;;4956906;29;20177;-63
2022/11/22 13:40:14;;;;;;;2.65;1.98;;;10.00;99.90;;;;;;4956740;29;20232;-63
2022/11/22 13:42:40;;;;;;;3.07;2.23;;;9.80;99.90;;;;;;4956254;29;20189;-66
2022/11/22 13:45:23;;;;;;;1.03;1.03;;;9.80;99.90;;;;;;4956204;29;20288;-65
2022/11/22 13:47:49;;;;;;;1.83;1.30;;;9.80;99.90;;;;;;4955412;29;20722;-65
2022/11/22 13:50:39;;;;;;;0.70;0.70;;;9.80;99.90;;;;;;4955818;29;20288;-64
2022/11/22 13:53:29;;;;;;;0.65;0.65;;;9.80;99.90;;;;;;4955844;29;20412;-64
2022/11/22 13:55:58;;;;;;;0.80;0.80;;;9.70;99.90;;;;;;4956014;29;20669;-65
2022/11/22 13:58:23;;;;;;;2.35;0.93;;;9.70;99.90;;;;;;4956214;29;20177;-66
2022/11/22 14:00:55;;;;;;;0.70;0.60;;;9.60;99.90;;;;;;4956953;29;20235;-64
2022/11/22 14:03:33;;;;;;;3.50;1.20;;;9.60;99.90;;;;;;4937341;29;20185;-66
2022/11/22 14:06:12;;;;;;;4.78;1.20;;;9.50;99.90;;;;;;4938133;29;20283;-63
2022/11/22 14:08:42;;;;;;;1.10;0.73;;;9.50;99.90;;;;;;4938424;29;20245;-62
2022/11/22 14:11:40;;;;;;;1.60;0.70;;;9.50;99.90;;;;;;4938800;29;20241;-64
2022/11/22 14:14:20;;;;;;;0.80;0.80;;;9.50;99.90;;;;;;4938790;29;20296;-64
2022/11/22 14:17:03;;;;;;;2.10;1.13;;;9.40;99.90;;;;;;4956592;29;20195;-66
2022/11/22 14:19:50;;;;;;;0.77;0.77;;;9.40;99.90;;;;;;4957003;29;20574;-67
2022/11/22 14:22:32;;;;;;;0.40;0.40;;;9.40;99.90;;;;;;4956979;29;20215;-63
2022/11/22 14:25:15;;;;;;;0.60;0.60;;;9.40;99.90;;;;;;4956403;29;20207;-66
2022/11/22 14:28:07;;;;;;;0.55;0.55;;;9.30;99.90;;;;;;4957093;29;20177;-64
2022/11/22 14:30:51;;;;;;;0.95;0.95;;;9.30;99.90;;;;;;4937602;29;20254;-63
2022/11/22 14:33:19;;;;;;;0.82;0.68;;;9.20;99.90;;;;;;4937417;29;20169;-65
2022/11/22 14:36:06;;;;;;;0.50;0.50;;;9.20;99.90;;;;;;4937749;29;20644;-64
2022/11/22 14:38:34;;;;;;;3.08;0.63;;;9.10;99.90;;;;;;4937576;29;20200;-66
2022/11/22 14:41:38;;;;;;;1.00;0.63;;;9.10;99.90;;;;;;4937436;29;20209;-64
2022/11/22 14:44:21;;;;;;;0.65;0.60;;;9.10;99.90;;;;;;4935501;29;20208;-63
2022/11/22 14:46:53;;;;;;;0.85;0.85;;;9.00;99.90;;;;;;4956772;29;20637;-65
2022/11/22 14:49:39;;;;;;;0.80;0.80;;;9.00;99.90;;;;;;4956473;29;20207;-63
2022/11/22 14:52:22;;;;;;;0.40;0.40;;;9.00;99.90;;;;;;4956665;29;20212;-63
2022/11/22 14:54:53;;;;;;;0.80;0.50;;;8.90;99.90;;;;;;4956186;29;20267;-62
2022/11/22 14:57:21;;;;;;;0.88;0.70;;;9.00;99.90;;;;;;4956347;29;20165;-63
2022/11/22 15:00:14;;;;;;;0.50;0.50;;;9.00;99.90;;;;;;4937377;29;20185;-66
2022/11/22 15:03:20;;;;;;;0.60;0.60;;;9.00;99.90;;;;;;4937071;29;20169;-63
2022/11/22 15:06:03;;;;;;;0.70;0.70;;;8.90;99.90;;;;;;4878440;29;20226;-64
2022/11/22 15:08:44;;;;;;;0.65;0.60;;;9.00;99.90;;;;;;4934042;29;20189;-66
2022/11/22 15:11:31;;;;;;;1.15;1.05;;;9.00;99.90;;;;;;4937174;29;20211;-66
2022/11/22 15:14:15;;;;;;;1.38;1.27;;;8.90;99.90;;;;;;4950172;28;20196;-64
2022/11/22 15:16:43;;;;;;;0.70;0.70;;;8.90;99.90;;;;;;4955656;29;20165;-66
2022/11/22 15:19:37;;;;;;;1.13;0.70;;;8.90;99.90;;;;;;4936953;29;20174;-63
2022/11/22 15:22:11;;;;;;;4.68;0.85;;;8.90;99.90;;;;;;4936941;29;20503;-64
2022/11/22 15:24:41;;;;;;;0.60;0.50;;;8.80;99.90;;;;;;4935939;29;20204;-62
2022/11/22 15:27:31;;;;;;;0.75;0.73;;;8.80;99.90;;;;;;4936537;29;20606;-65
2022/11/22 15:30:21;;;;;;;1.35;1.25;;;8.70;99.90;;;;;;4934635;29;20190;-66
2022/11/22 15:32:50;;;;;;;8.98;1.15;;;8.70;99.90;;;;;;4936223;29;20915;-66
2022/11/22 15:35:43;;;;;;;0.57;0.55;;;8.70;99.90;;;;;;4936747;29;20261;-64
2022/11/22 15:38:09;;;;;;;0.50;0.50;;;8.60;99.90;;;;;;4936746;29;20209;-67
2022/11/22 15:40:38;;;;;;;0.60;0.60;;;8.60;99.90;;;;;;4954365;29;20240;-64
2022/11/22 15:43:10;;;;;;;1.80;1.70;;;8.50;99.90;;;;;;4955363;29;20548;-66
2022/11/22 15:45:44;;;;;;;0.98;0.68;;;8.50;99.90;;;;;;4955679;29;20550;-63
2022/11/22 15:48:15;;;;;;;0.60;0.60;;;8.50;99.90;;;;;;4955753;29;20243;-66
2022/11/22 15:51:03;;;;;;;1.23;0.93;;;8.50;99.90;;;;;;4955499;29;20561;-63
2022/11/22 15:53:30;;;;;;;1.20;0.63;;;8.40;99.90;;;;;;4947007;29;20260;-63
2022/11/22 15:55:58;;;;;;;0.60;0.60;;;8.40;99.90;;;;;;4936169;29;20593;-66
2022/11/22 15:58:29;;;;;;;0.50;0.50;;;8.50;99.90;;;;;;4936150;29;20183;-65
2022/11/22 16:01:00;;;;;;;1.15;1.05;;;8.40;99.90;;;;;;4936386;29;20582;-65
2022/11/22 16:03:35;;;;;;;1.20;0.60;;;8.40;99.90;;;;;;4935635;29;20187;-64
2022/11/22 16:06:06;;;;;;;0.80;0.80;;;8.40;99.90;;;;;;4935838;29;20208;-66
2022/11/22 16:08:34;;;;;;;0.50;0.50;;;8.50;99.90;;;;;;4935913;29;20244;-64
2022/11/22 16:11:00;;;;;;;0.60;0.60;;;8.50;99.90;;;;;;4936193;29;20208;-64
2022/11/22 16:13:28;;;;;;;1.70;0.47;;;8.50;99.90;;;;;;4945082;29;20239;-65
2022/11/22 16:16:11;;;;;;;2.45;0.88;;;8.50;99.90;;;;;;4955031;29;20644;-64
2022/11/22 16:18:42;;;;;;;0.60;0.60;;;8.50;99.90;;;;;;4954717;29;20180;-65
2022/11/22 16:21:10;;;;;;;2.53;0.95;;;8.50;99.90;;;;;;4955022;29;20196;-64
2022/11/22 16:23:38;;;;;;;0.73;0.73;;;8.40;99.90;;;;;;4954671;29;20212;-65
2022/11/22 16:26:28;;;;;;;1.55;1.40;;;8.40;99.90;;;;;;4959681;28;20175;-66
2022/11/22 16:29:15;;;;;;;2.00;1.70;;;8.50;99.90;;;;;;4960945;29;20279;-64
2022/11/22 16:31:40;;;;;;;2.13;2.00;;;8.50;99.90;;;;;;4960572;29;20214;-65
2022/11/22 16:34:12;;;;;;;6.10;4.07;;;8.50;99.90;;;;;;4961002;28;20283;-65
2022/11/22 16:36:38;;;;;;;10.10;6.63;;;8.50;99.90;;;;;;4961428;29;20601;-67
2022/11/22 16:39:03;;;;;;;9.27;7.23;;;8.50;99.90;;;;;;4961284;29;20255;-65
2022/11/22 16:41:29;;;;;;;2.37;1.57;;;8.50;99.90;;;;;;4961375;29;20172;-66
2022/11/22 16:43:56;;;;;;;0.77;0.77;;;8.50;99.90;;;;;;4947984;29;20204;-62
2022/11/22 16:46:21;;;;;;;0.80;0.80;;;8.50;99.90;;;;;;4960921;28;20569;-65
2022/11/22 16:48:47;;;;;;;0.53;0.50;;;8.50;99.90;;;;;;4961251;28;20179;-65
2022/11/22 16:51:20;;;;;;;0.80;0.80;;;8.50;99.90;;;;;;4961178;28;20452;-67
2022/11/22 16:53:48;;;;;;;5.00;0.60;;;8.50;99.90;;;;;;4960918;29;20193;-66
2022/11/22 16:56:18;;;;;;;0.63;0.63;;;8.50;99.90;;;;;;4961261;29;20172;-66
2022/11/22 16:58:44;;;;;;;5.45;1.27;;;8.50;99.90;;;;;;4960634;28;20181;-65
2022/11/22 17:01:13;;;;;;;1.02;1.02;;;8.50;99.90;;;;;;4961335;29;20708;-68
2022/11/22 17:03:39;;;;;;;2.17;0.90;;;8.60;99.90;;;;;;4960612;29;20192;-67
2022/11/22 17:06:05;;;;;;;1.03;1.00;;;8.60;99.90;;;;;;4951526;29;20283;-67
2022/11/22 17:08:30;;;;;;;2.53;1.73;;;8.50;99.90;;;;;;4942205;29;20264;-66
2022/11/22 17:10:56;;;;;;;12.40;4.03;;;8.60;99.90;;;;;;4941726;29;20228;-67
2022/11/22 17:13:24;;;;;;;2.17;2.00;;;8.60;99.90;;;;;;4941687;29;20181;-66
2022/11/22 17:15:52;;;;;;;2.70;1.40;;;8.50;99.90;;;;;;4942052;29;20184;-65
2022/11/22 17:18:17;;;;;;;2.15;2.05;;;8.60;99.90;;;;;;4941942;29;20174;-67
2022/11/22 17:20:43;;;;;;;1.07;1.03;;;8.60;99.90;;;;;;4941708;29;20181;-62
2022/11/22 17:23:32;;;;;;;1.73;1.10;;;8.60;99.90;;;;;;4941418;29;20177;-65
2022/11/22 17:25:58;;;;;;;0.95;0.90;;;8.60;99.90;;;;;;4941452;29;20593;-63
2022/11/22 17:28:24;;;;;;;1.63;1.23;;;8.60;99.90;;;;;;4941982;29;20178;-63
2022/11/22 17:30:50;;;;;;;2.27;1.47;;;8.60;99.90;;;;;;4941900;29;20553;-63
2022/11/22 17:33:15;;;;;;;3.22;2.13;;;8.60;99.90;;;;;;4945826;29;20176;-64
2022/11/22 17:35:41;;;;;;;1.03;0.80;;;8.60;99.90;;;;;;4960148;29;20282;-62
2022/11/22 17:38:10;;;;;;;1.93;1.17;;;8.60;99.90;;;;;;4956999;28;20568;-65
2022/11/22 17:40:35;;;;;;;2.00;1.83;;;8.60;99.90;;;;;;4957644;29;20424;-62
2022/11/22 17:43:01;;;;;;;1.30;1.20;;;8.70;99.90;;;;;;4957530;29;20173;-64
2022/11/22 17:45:27;;;;;;;1.10;0.90;;;8.70;99.90;;;;;;4957471;29;20200;-61
2022/11/22 17:47:53;;;;;;;0.95;0.95;;;8.70;99.90;;;;;;4957712;29;20404;-64
2022/11/22 17:50:19;;;;;;;1.43;1.30;;;8.70;99.90;;;;;;4957486;29;20211;-63
2022/11/22 17:52:44;;;;;;;1.17;1.07;;;8.70;99.90;;;;;;4957056;29;20169;-64
2022/11/22 17:55:10;;;;;;;1.60;1.00;;;8.70;99.90;;;;;;4957661;29;20196;-63
2022/11/22 17:57:36;;;;;;;1.20;1.10;;;8.70;99.90;;;;;;4957737;29;20637;-63
2022/11/22 18:00:05;;;;;;;2.97;0.83;;;8.70;99.90;;;;;;4939982;29;20205;-62
2022/11/22 18:02:31;;;;;;;4.32;1.45;;;8.70;99.90;;;;;;4937984;29;20634;-64
2022/11/22 18:04:59;;;;;;;0.98;0.98;;;8.60;99.90;;;;;;4939054;29;20625;-64
2022/11/22 18:07:27;;;;;;;3.80;1.20;;;8.70;99.90;;;;;;4953013;29;20181;-64
2022/11/22 18:09:53;;;;;;;1.27;0.93;;;8.70;99.90;;;;;;4949046;29;20267;-63
2022/11/22 18:12:19;;;;;;;0.80;0.80;;;8.70;99.90;;;;;;4945641;29;20288;-62
2022/11/22 18:14:46;;;;;;;0.80;0.80;;;8.70;99.90;;;;;;4937686;29;20711;-63
2022/11/22 18:17:12;;;;;;;1.35;0.88;;;8.70;99.90;;;;;;4937957;29;20185;-60
2022/11/22 18:19:38;;;;;;;0.88;0.88;;;8.70;99.90;;;;;;4938603;29;20201;-64
2022/11/22 18:22:03;;;;;;;1.37;1.00;;;8.70;99.90;;;;;;4946381;29;20652;-63
2022/11/22 18:24:29;;;;;;;2.40;2.10;;;8.60;99.90;;;;;;4955989;29;20502;-65